CheckWX is a tool to help pilots better visualize weather data.  It is not intended as a substitute for an official pre-flight weather briefing.

06:53:41 UTC

KILE METAR
Skylark Field Airport
Killeen, Texas, USA
Current

58 mins ago

KILE 210556Z AUTO 16018G27KT 10SM OVC020 24/21 A2958 RMK AO2 PK WND 16029/0531 SLP002 T02440211 10289 20244 403170239 58019
Observed
May-21 @ 05:56 UTC
Wind
  • 160° at 18 KTS
  • Gusting to 27 KTS
Visibility
10 SM
Flight Rules
MVFR
Cloud Levels
  • Overcast at 2,000' AGL
Temperature
24°C / 75°F
Dewpoint
21°C / 70°F
Humidity
83%
Altimeter
29.58" Hg
Pressure
1001.72 hPa
Previous

2 hours ago

KILE 210456Z AUTO 16017G27KT 10SM OVC018 24/21 A2960 RMK AO2 PK WND 15030/0435 SLP010 T02440211
Observed
May-21 @ 04:56 UTC
Wind
  • 160° at 17 KTS
  • Gusting to 27 KTS
Visibility
10 SM
Flight Rules
MVFR
Cloud Levels
  • Overcast at 1,800' AGL
Temperature
24°C / 75°F
Dewpoint
21°C / 70°F
Humidity
83%
Altimeter
29.6" Hg
Pressure
1002.42 hPa
Previous

3 hours ago

KILE 210356Z AUTO 16022G28KT 10SM OVC020 25/22 A2963 RMK AO2 PK WND 15028/0356 SLP019 T02500217
Observed
May-21 @ 03:56 UTC
Wind
  • 160° at 22 KTS
  • Gusting to 28 KTS
Visibility
10 SM
Flight Rules
MVFR
Cloud Levels
  • Overcast at 2,000' AGL
Temperature
25°C / 77°F
Dewpoint
22°C / 72°F
Humidity
83%
Altimeter
29.63" Hg
Pressure
1003.42 hPa